Time;durP1;ratioP1;P1;durP2;ratioP2;P2;SDS_P1;SDS_P2;PMS_P1;PMS_P2;Temp;Humidity;BMP_temperature;BMP_pressure;BME280_temperature;BME280_humidity;BME280_pressure;Samples;Min_cycle;Max_cycle;Signal;HPM_P1;HPM_P2
2023/03/27 00:02:00;;;;;;;;;;;;;;;10.03;100.00;99272.19;5070031;28;19976;-58
2023/03/27 00:04:27;;;;;;;;;;;;;;;9.99;100.00;99280.34;5069293;28;19944;-57
2023/03/27 00:06:53;;;;;;;;;;;;;;;10.02;100.00;99286.41;5067614;28;20694;-57
2023/03/27 00:09:20;;;;;;;;;;;;;;;10.00;100.00;99290.91;5050054;28;19937;-58
2023/03/27 00:11:46;;;;;;;;;;;;;;;9.98;100.00;99284.81;5053068;28;19931;-57
2023/03/27 00:14:11;;;;;;;;;;;;;;;9.93;100.00;99296.56;5049756;28;20361;-58
2023/03/27 00:16:37;;;;;;;;;;;;;;;9.94;100.00;99299.16;5049500;28;20048;-57
2023/03/27 00:19:02;;;;;;;;;;;;;;;10.00;100.00;99306.03;5049316;28;19927;-58
2023/03/27 00:21:28;;;;;;;;;;;;;;;9.95;100.00;99308.84;5051777;28;20446;-58
2023/03/27 00:23:53;;;;;;;;;;;;;;;9.98;100.00;99316.69;5049075;28;19923;-58
2023/03/27 00:26:20;;;;;;;;;;;;;;;9.99;100.00;99312.25;5062289;28;20341;-58
2023/03/27 00:28:46;;;;;;;;;;;;;;;9.93;100.00;99324.00;5069174;28;19927;-58
2023/03/27 00:31:12;;;;;;;;;;;;;;;9.91;100.00;99327.63;5067683;28;19980;-58
2023/03/27 00:33:38;;;;;;;;;;;;;;;9.90;100.00;99334.72;5069630;28;19972;-58
2023/03/27 00:36:03;;;;;;;;;;;;;;;9.84;100.00;99340.28;5069596;28;20780;-57
2023/03/27 00:38:28;;;;;;;;;;;;;;;9.84;100.00;99353.56;5067875;28;19991;-58
2023/03/27 00:40:54;;;;;;;;;;;;;;;9.84;100.00;99350.94;5051745;28;19913;-58
2023/03/27 00:43:27;;;;;;;;;;;;;;;9.84;100.00;99353.56;5065400;28;19980;-57
2023/03/27 00:46:15;;;;;;;;;;;;;;;9.86;100.00;99359.69;5066579;28;20303;-58
2023/03/27 00:48:42;;;;;;;;;;;;;;;9.89;100.00;99354.25;5059845;28;20014;-58
2023/03/27 00:51:09;;;;;;;;;;;;;;;9.91;100.00;99368.34;5072676;28;20617;-57
2023/03/27 00:53:35;;;;;;;;;;;;;;;9.91;100.00;99371.00;5070776;28;19927;-57
2023/03/27 00:56:04;;;;;;;;;;;;;;;9.94;100.00;99368.22;5054219;28;19943;-57
2023/03/27 00:58:36;;;;;;;;;;;;;;;9.97;100.00;99368.09;5052329;28;20395;-58
2023/03/27 01:01:01;;;;;;;;;;;;;;;9.95;100.00;99375.25;5058357;28;19934;-58
2023/03/27 01:03:29;;;;;;;;;;;;;;;9.93;100.00;99377.13;5053660;28;20272;-58
2023/03/27 01:05:55;;;;;;;;;;;;;;;9.88;100.00;99384.41;5068618;28;19978;-58
2023/03/27 01:08:20;;;;;;;;;;;;;;;9.85;100.00;99388.97;5056929;28;20026;-57
2023/03/27 01:10:51;;;;;;;;;;;;;;;9.86;100.00;99391.56;5055942;28;19946;-57
2023/03/27 01:13:23;;;;;;;;;;;;;;;9.88;100.00;99392.38;5073104;28;20340;-57
2023/03/27 01:15:54;;;;;;;;;;;;;;;9.91;100.00;99400.22;5072523;28;19947;-57
2023/03/27 01:18:25;;;;;;;;;;;;;;;9.97;100.00;99405.28;5071164;28;19995;-58
2023/03/27 01:21:01;;;;;;;;;;;;;;;10.03;100.00;99418.31;5054222;28;20049;-58
2023/03/27 01:23:45;;;;;;;;;;;;;;;9.97;100.00;99423.88;5069373;28;19944;-57
2023/03/27 01:26:10;;;;;;;;;;;;;;;9.99;100.00;99430.00;5052805;28;19931;-58
2023/03/27 01:28:41;;;;;;;;;;;;;;;9.95;100.00;99428.38;5052876;28;19996;-57
2023/03/27 01:31:21;;;;;;;;;;;;;;;9.86;100.00;99428.75;5052529;28;20080;-58
2023/03/27 01:33:47;;;;;;;;;;;;;;;9.81;100.00;99441.34;5055070;28;19930;-57
2023/03/27 01:36:28;;;;;;;;;;;;;;;9.83;100.00;99442.16;5066501;28;20718;-57
2023/03/27 01:39:12;;;;;;;;;;;;;;;9.75;100.00;99446.88;5072479;28;19926;-57
2023/03/27 01:41:52;;;;;;;;;;;;;;;9.70;100.00;99459.50;5071658;28;19923;-58
2023/03/27 01:44:28;;;;;;;;;;;;;;;9.77;100.00;99465.44;5068281;28;19916;-58
2023/03/27 01:46:57;;;;;;;;;;;;;;;9.78;99.82;99462.72;5072315;28;19926;-57
2023/03/27 01:49:50;;;;;;;;;;;;;;;9.80;99.81;99468.81;5063690;28;19981;-58
2023/03/27 01:52:19;;;;;;;;;;;;;;;9.80;100.00;99471.47;5069084;28;19920;-58
2023/03/27 01:54:46;;;;;;;;;;;;;;;9.80;100.00;99476.78;5069123;28;20397;-58
2023/03/27 01:57:14;;;;;;;;;;;;;;;9.66;100.00;99484.41;5051543;28;19938;-57
2023/03/27 01:59:43;;;;;;;;;;;;;;;9.62;100.00;99490.75;5051894;28;19934;-57
2023/03/27 02:02:29;;;;;;;;;;;;;;;9.56;100.00;99498.09;5037931;28;19975;-58
2023/03/27 02:05:02;;;;;;;;;;;;;;;9.53;100.00;99500.84;5059109;28;19955;-58
2023/03/27 02:07:31;;;;;;;;;;;;;;;9.51;100.00;99516.84;5056238;28;20400;-58
2023/03/27 02:09:59;;;;;;;;;;;;;;;9.49;99.87;99512.53;5071391;28;20370;-58
2023/03/27 02:12:31;;;;;;;;;;;;;;;9.42;98.67;99522.50;5059587;28;19931;-58
2023/03/27 02:15:00;;;;;;;;;;;;;;;9.41;97.96;99530.53;5052115;28;20000;-58
2023/03/27 02:17:26;;;;;;;;;;;;;;;9.39;96.58;99527.03;5051970;28;20033;-57
2023/03/27 02:19:57;;;;;;;;;;;;;;;9.41;95.99;99541.97;5054348;28;20433;-57
2023/03/27 02:22:22;;;;;;;;;;;;;;;9.43;95.53;99545.44;5051653;28;19935;-58
2023/03/27 02:24:50;;;;;;;;;;;;;;;9.31;92.66;99551.19;5051653;28;19939;-57
2023/03/27 02:27:21;;;;;;;;;;;;;;;9.28;91.33;99562.78;5066755;28;19985;-58
2023/03/27 02:29:57;;;;;;;;;;;;;;;9.28;90.64;99561.91;5053571;28;19935;-57
2023/03/27 02:32:28;;;;;;;;;;;;;;;9.30;90.18;99570.69;5059935;28;19962;-57
2023/03/27 02:34:55;;;;;;;;;;;;;;;9.32;90.59;99574.16;5071781;28;19947;-58
2023/03/27 02:37:30;;;;;;;;;;;;;;;9.28;90.37;99584.03;5053883;28;20025;-57
2023/03/27 02:39:58;;;;;;;;;;;;;;;9.22;90.50;99591.31;5053955;28;19927;-57
2023/03/27 02:42:26;;;;;;;;;;;;;;;9.20;89.79;99590.50;5051285;28;19919;-57
2023/03/27 02:44:56;;;;;;;;;;;;;;;9.16;89.82;99599.47;5054484;28;20710;-57
2023/03/27 02:47:41;;;;;;;;;;;;;;;9.22;90.61;99601.94;5071143;28;19946;-57
2023/03/27 02:50:10;;;;;;;;;;;;;;;9.22;90.40;99604.59;5050302;28;19959;-58
2023/03/27 02:52:39;;;;;;;;;;;;;;;9.27;91.22;99608.81;5033592;28;19978;-57
2023/03/27 02:55:07;;;;;;;;;;;;;;;9.25;90.81;99615.09;5031229;28;20046;-57
2023/03/27 02:57:37;;;;;;;;;;;;;;;9.24;91.55;99616.88;5033297;28;19934;-58
2023/03/27 03:00:24;;;;;;;;;;;;;;;9.29;92.30;99627.34;5031236;28;19936;-57
2023/03/27 03:02:50;;;;;;;;;;;;;;;9.30;91.92;99635.25;5033592;28;19917;-57
2023/03/27 03:05:19;;;;;;;;;;;;;;;9.33;93.87;99644.91;5041120;28;19924;-57
2023/03/27 03:07:45;;;;;;;;;;;;;;;9.36;94.19;99654.56;5050179;28;19931;-58
2023/03/27 03:10:14;;;;;;;;;;;;;;;9.33;93.99;99650.19;5035720;28;20009;-57
2023/03/27 03:12:40;;;;;;;;;;;;;;;9.36;94.35;99671.31;5030716;28;19997;-57
2023/03/27 03:15:06;;;;;;;;;;;;;;;9.37;94.58;99673.09;5030400;28;20281;-57
2023/03/27 03:17:32;;;;;;;;;;;;;;;9.32;93.88;99677.66;5030991;28;19959;-57
2023/03/27 03:19:57;;;;;;;;;;;;;;;9.30;93.92;99682.16;5032822;28;19959;-58
2023/03/27 03:22:22;;;;;;;;;;;;;;;9.25;93.72;99694.72;5030547;28;19943;-57
2023/03/27 03:24:49;;;;;;;;;;;;;;;9.27;93.74;99704.34;5033009;28;19921;-57
2023/03/27 03:27:19;;;;;;;;;;;;;;;9.27;93.91;99709.66;5029911;28;19927;-57
2023/03/27 03:29:45;;;;;;;;;;;;;;;9.25;94.41;99705.31;5039435;28;19939;-57
2023/03/27 03:32:10;;;;;;;;;;;;;;;9.20;93.79;99710.78;5061349;28;20421;-57
2023/03/27 03:34:35;;;;;;;;;;;;;;;9.23;94.06;99717.75;5063448;28;20022;-57
2023/03/27 03:37:00;;;;;;;;;;;;;;;9.23;94.36;99728.38;5046454;28;20054;-57
2023/03/27 03:39:26;;;;;;;;;;;;;;;9.25;94.60;99734.50;5045035;28;19938;-58
2023/03/27 03:41:52;;;;;;;;;;;;;;;9.22;94.80;99735.47;5050632;28;19942;-58
2023/03/27 03:44:17;;;;;;;;;;;;;;;9.22;94.99;99742.56;5055309;28;19938;-57
2023/03/27 03:46:42;;;;;;;;;;;;;;;9.13;94.67;99742.84;5049630;28;20027;-57
2023/03/27 03:49:07;;;;;;;;;;;;;;;9.13;94.76;99748.16;5062065;28;20349;-57
2023/03/27 03:51:34;;;;;;;;;;;;;;;9.07;94.33;99749.22;5068125;28;19940;-57
2023/03/27 03:54:00;;;;;;;;;;;;;;;9.01;94.25;99767.97;5051493;28;19931;-58
2023/03/27 03:56:26;;;;;;;;;;;;;;;8.88;93.73;99768.41;5049973;28;19944;-57
2023/03/27 03:58:52;;;;;;;;;;;;;;;8.89;92.90;99772.78;5052743;28;19935;-57
2023/03/27 04:01:19;;;;;;;;;;;;;;;8.84;91.41;99777.34;5050043;28;20284;-58
2023/03/27 04:03:44;;;;;;;;;;;;;;;8.74;89.59;99787.38;5052165;28;20011;-57
2023/03/27 04:06:10;;;;;;;;;;;;;;;8.69;88.51;99794.59;5067603;28;19955;-57
2023/03/27 04:08:35;;;;;;;;;;;;;;;8.69;87.69;99804.31;5069632;28;19946;-57
2023/03/27 04:11:01;;;;;;;;;;;;;;;8.69;86.63;99812.25;5069824;28;20395;-58
2023/03/27 04:13:26;;;;;;;;;;;;;;;8.65;86.57;99829.19;5061560;28;19942;-57
2023/03/27 04:15:52;;;;;;;;;;;;;;;8.66;85.69;99836.22;5048790;28;19951;-57
2023/03/27 04:18:18;;;;;;;;;;;;;;;8.59;83.09;99837.28;5050232;28;19934;-58
2023/03/27 04:20:48;;;;;;;;;;;;;;;8.62;83.13;99850.44;5049365;28;20287;-57
2023/03/27 04:23:17;;;;;;;;;;;;;;;8.65;83.51;99851.25;5049050;28;19974;-57
2023/03/27 04:25:42;;;;;;;;;;;;;;;8.57;81.99;99857.66;5050968;28;19935;-57
2023/03/27 04:28:09;;;;;;;;;;;;;;;8.53;81.76;99861.31;5049625;28;19983;-57
2023/03/27 04:30:35;;;;;;;;;;;;;;;8.49;81.55;99880.84;5060769;28;20009;-57
2023/03/27 04:33:01;;;;;;;;;;;;;;;8.52;81.38;99886.06;5060284;28;20703;-57
2023/03/27 04:35:26;;;;;;;;;;;;;;;8.50;81.29;99885.25;5053874;28;19951;-57
2023/03/27 04:37:52;;;;;;;;;;;;;;;8.48;81.21;99900.34;5069597;28;19930;-57
2023/03/27 04:40:17;;;;;;;;;;;;;;;8.33;79.30;99906.91;5053766;28;20387;-57
2023/03/27 04:42:43;;;;;;;;;;;;;;;8.27;78.88;99906.19;5049515;28;19954;-57
2023/03/27 04:45:16;;;;;;;;;;;;;;;8.22;79.38;99905.41;5049624;28;19927;-57
2023/03/27 04:47:42;;;;;;;;;;;;;;;8.20;78.83;99909.84;5050334;28;19932;-57
2023/03/27 04:50:08;;;;;;;;;;;;;;;8.18;78.84;99916.97;5054584;28;19934;-57
2023/03/27 04:52:33;;;;;;;;;;;;;;;8.11;76.58;99933.91;5069341;28;20290;-57
2023/03/27 04:55:00;;;;;;;;;;;;;;;8.04;76.33;99936.72;5056295;28;19939;-56
2023/03/27 04:57:26;;;;;;;;;;;;;;;8.04;76.56;99943.78;5049364;28;19932;-57
2023/03/27 04:59:52;;;;;;;;;;;;;;;7.97;75.60;99951.00;5049339;28;19918;-56
2023/03/27 05:02:17;;;;;;;;;;;;;;;7.86;74.29;99953.03;5052419;28;20002;-57
2023/03/27 05:04:42;;;;;;;;;;;;;;;7.78;74.02;99960.28;5054978;28;19955;-56
2023/03/27 05:07:09;;;;;;;;;;;;;;;7.78;72.68;99981.47;5063185;28;19934;-58
2023/03/27 05:09:34;;;;;;;;;;;;;;;7.74;72.95;99978.91;5049037;28;19932;-57
2023/03/27 05:11:59;;;;;;;;;;;;;;;7.68;70.43;99998.44;5049252;28;19978;-57
2023/03/27 05:14:25;;;;;;;;;;;;;;;7.72;73.29;99996.59;5051892;28;20418;-57
2023/03/27 05:16:51;;;;;;;;;;;;;;;7.70;72.31;100004.59;5049685;28;19958;-57
2023/03/27 05:19:18;;;;;;;;;;;;;;;7.59;71.81;100016.31;5056867;28;19991;-57
2023/03/27 05:21:45;;;;;;;;;;;;;;;7.54;72.38;100013.75;5068979;28;20591;-57
2023/03/27 05:24:10;;;;;;;;;;;;;;;7.50;72.87;100027.94;5061414;28;19917;-57
2023/03/27 05:26:35;;;;;;;;;;;;;;;7.48;73.00;100034.19;5046269;28;19947;-57
2023/03/27 05:29:00;;;;;;;;;;;;;;;7.48;73.93;100045.63;5047515;28;20003;-57
2023/03/27 05:31:26;;;;;;;;;;;;;;;7.45;74.46;100061.56;5065069;28;19942;-57
2023/03/27 05:33:52;;;;;;;;;;;;;;;7.38;72.49;100070.50;5070952;28;19970;-57
2023/03/27 05:36:17;;;;;;;;;;;;;;;7.36;72.90;100082.91;5065153;28;20014;-57
2023/03/27 05:38:43;;;;;;;;;;;;;;;7.35;73.31;100089.09;5052376;28;20514;-58
2023/03/27 05:41:11;;;;;;;;;;;;;;;7.32;73.37;100094.44;5034607;28;19954;-56
2023/03/27 05:43:37;;;;;;;;;;;;;;;7.21;70.83;100099.06;5054506;28;19939;-57
2023/03/27 05:46:03;;;;;;;;;;;;;;;7.23;70.99;100112.25;5052475;28;19932;-56
2023/03/27 05:48:28;;;;;;;;;;;;;;;7.25;70.75;100108.66;5054576;28;19959;-57
2023/03/27 05:50:53;;;;;;;;;;;;;;;7.26;69.61;100122.78;5062566;28;19931;-57
2023/03/27 05:53:19;;;;;;;;;;;;;;;7.30;70.62;100127.09;5069747;28;19916;-57
2023/03/27 05:55:44;;;;;;;;;;;;;;;7.18;68.62;100136.13;5055389;28;20407;-58
2023/03/27 05:58:12;;;;;;;;;;;;;;;7.23;69.67;100147.50;5054387;28;20028;-57
2023/03/27 06:00:40;;;;;;;;;;;;;;;7.35;69.04;100157.88;5055401;28;19950;-57
2023/03/27 06:03:06;;;;;;;;;;;;;;;7.31;66.23;100171.19;5064902;28;20023;-58
2023/03/27 06:05:31;;;;;;;;;;;;;;;7.30;65.22;100172.97;5071291;28;20041;-57
2023/03/27 06:07:59;;;;;;;;;;;;;;;7.48;66.03;100177.94;5067169;28;20391;-58
2023/03/27 06:10:26;;;;;;;;;;;;;;;7.65;64.94;100185.56;5052018;28;19945;-57
2023/03/27 06:13:05;;;;;;;;;;;;;;;7.90;64.23;100189.53;5051998;28;19923;-57
2023/03/27 06:15:30;;;;;;;;;;;;;;;8.78;62.78;100194.75;5054460;28;20290;-57
2023/03/27 06:17:56;;;;;;;;;;;;;;;9.81;58.59;100193.06;5052027;28;19923;-57
2023/03/27 06:20:21;;;;;;;;;;;;;;;11.02;57.14;100189.53;5068111;28;19946;-57
2023/03/27 06:22:48;;;;;;;;;;;;;;;12.50;50.81;100198.56;5071904;28;19945;-57
2023/03/27 06:25:14;;;;;;;;;;;;;;;13.49;46.15;100204.44;5068171;28;20396;-56
2023/03/27 06:27:44;;;;;;;;;;;;;;;14.32;45.04;100209.72;5071938;28;20030;-57
2023/03/27 06:30:10;;;;;;;;;;;;;;;15.01;42.54;100217.19;5065668;28;19917;-56
2023/03/27 06:32:35;;;;;;;;;;;;;;;15.45;41.18;100228.50;5051545;28;19945;-57
2023/03/27 06:35:01;;;;;;;;;;;;;;;15.53;40.40;100234.34;5054567;28;20363;-57
2023/03/27 06:37:27;;;;;;;;;;;;;;;16.22;40.05;100237.94;5049561;28;20389;-56
2023/03/27 06:39:53;;;;;;;;;;;;;;;16.75;39.41;100239.56;5071474;28;19985;-57
2023/03/27 06:42:19;;;;;;;;;;;;;;;16.93;39.14;100243.06;5071172;28;20031;-57
2023/03/27 06:44:44;;;;;;;;;;;;;;;17.28;37.63;100244.66;5068429;28;20037;-57
2023/03/27 06:47:09;;;;;;;;;;;;;;;17.46;37.03;100249.03;5052840;28;20002;-57
2023/03/27 06:49:34;;;;;;;;;;;;;;;17.54;37.22;100253.97;5051040;28;19955;-56
2023/03/27 06:52:00;;;;;;;;;;;;;;;17.37;37.16;100254.91;5062908;28;19931;-56
2023/03/27 06:54:25;;;;;;;;;;;;;;;16.75;37.96;100271.78;5069862;28;20045;-56
2023/03/27 06:56:50;;;;;;;;;;;;;;;16.34;38.75;100274.91;5066418;28;19962;-56
2023/03/27 06:59:16;;;;;;;;;;;;;;;15.94;40.91;100277.88;5050214;28;20376;-55
2023/03/27 07:01:42;;;;;;;;;;;;;;;16.29;38.84;100287.69;5050019;28;19954;-56
2023/03/27 07:04:08;;;;;;;;;;;;;;;15.85;39.00;100289.09;5052277;28;20001;-56
2023/03/27 07:06:33;;;;;;;;;;;;;;;15.14;39.26;100287.16;5069232;28;19930;-56
2023/03/27 07:08:58;;;;;;;;;;;;;;;12.95;43.22;100304.47;5065346;28;19950;-56
2023/03/27 07:11:24;;;;;;;;;;;;;;;12.69;45.35;100306.34;5050698;28;19941;-56
2023/03/27 07:13:49;;;;;;;;;;;;;;;13.30;45.43;100304.94;5050279;28;19942;-56
2023/03/27 07:16:15;;;;;;;;;;;;;;;14.36;42.89;100307.69;5062957;28;19950;-57
2023/03/27 07:18:40;;;;;;;;;;;;;;;15.77;41.03;100310.91;5070155;28;20298;-57
2023/03/27 07:21:07;;;;;;;;;;;;;;;17.48;38.74;100313.50;5070796;28;19917;-57
2023/03/27 07:23:32;;;;;;;;;;;;;;;18.66;35.99;100316.38;5069535;28;19966;-56
2023/03/27 07:25:58;;;;;;;;;;;;;;;18.77;33.95;100323.78;5067907;28;19960;-56
2023/03/27 07:28:23;;;;;;;;;;;;;;;18.60;33.23;100326.66;5069804;28;19934;-57
2023/03/27 07:30:49;;;;;;;;;;;;;;;18.68;34.78;100340.53;5052144;28;19932;-56
2023/03/27 07:33:14;;;;;;;;;;;;;;;18.97;35.08;100347.69;5049626;28;19913;-57
2023/03/27 07:35:44;;;;;;;;;;;;;;;18.94;33.80;100348.78;5055542;28;19959;-57
2023/03/27 07:38:09;;;;;;;;;;;;;;;18.79;34.91;100348.81;5069711;28;19927;-57
2023/03/27 07:40:35;;;;;;;;;;;;;;;19.25;35.94;100353.13;5053474;28;19991;-57
2023/03/27 07:43:00;;;;;;;;;;;;;;;18.83;33.06;100355.78;5049515;28;19920;-56
2023/03/27 07:45:26;;;;;;;;;;;;;;;18.05;33.46;100356.81;5051637;28;19954;-57
2023/03/27 07:47:51;;;;;;;;;;;;;;;17.44;34.79;100361.19;5049558;28;19925;-57
2023/03/27 07:50:19;;;;;;;;;;;;;;;17.67;35.88;100368.88;5065618;28;19927;-56
2023/03/27 07:52:45;;;;;;;;;;;;;;;17.15;35.45;100375.31;5033770;28;19931;-57
2023/03/27 07:55:11;;;;;;;;;;;;;;;17.07;36.13;100367.69;5048675;28;19980;-57
2023/03/27 07:57:43;;;;;;;;;;;;;;;16.50;37.25;100383.28;5049972;28;19980;-57
2023/03/27 08:00:10;;;;;;;;;;;;;;;16.74;38.29;100382.00;5065436;28;20324;-56
2023/03/27 08:02:36;;;;;;;;;;;;;;;16.95;37.74;100386.28;5069864;28;19927;-56
2023/03/27 08:05:04;;;;;;;;;;;;;;;17.33;36.89;100387.78;5069391;28;19950;-56
2023/03/27 08:07:31;;;;;;;;;;;;;;;17.43;37.75;100396.25;5053342;28;19974;-56
2023/03/27 08:09:56;;;;;;;;;;;;;;;17.15;36.74;100391.44;5049856;28;19929;-57
2023/03/27 08:12:21;;;;;;;;;;;;;;;17.30;36.64;100397.84;5051945;28;20401;-57
2023/03/27 08:14:47;;;;;;;;;;;;;;;16.75;36.61;100395.38;5048640;28;20287;-56
2023/03/27 08:17:12;;;;;;;;;;;;;;;16.50;36.42;100404.78;5048104;28;20004;-57
2023/03/27 08:19:38;;;;;;;;;;;;;;;16.06;36.11;100409.63;5051549;28;20015;-57
2023/03/27 08:22:03;;;;;;;;;;;;;;;16.41;37.20;100415.91;5056961;28;20394;-57
2023/03/27 08:24:28;;;;;;;;;;;;;;;16.36;37.16;100418.00;5051327;28;20328;-57
2023/03/27 08:26:54;;;;;;;;;;;;;;;16.21;36.88;100416.91;5048840;28;19930;-56
2023/03/27 08:29:19;;;;;;;;;;;;;;;15.83;34.89;100421.44;5048965;28;19929;-57
2023/03/27 08:31:44;;;;;;;;;;;;;;;15.63;38.47;100426.03;5051481;28;20058;-56
2023/03/27 08:34:10;;;;;;;;;;;;;;;15.62;36.83;100427.84;5049771;28;20037;-56
2023/03/27 08:36:37;;;;;;;;;;;;;;;15.01;38.56;100433.31;5063180;28;20325;-57
2023/03/27 08:39:03;;;;;;;;;;;;;;;15.36;37.56;100433.50;5067223;28;19917;-57
2023/03/27 08:41:37;;;;;;;;;;;;;;;15.92;37.12;100432.69;5069419;28;20304;-56
2023/03/27 08:44:05;;;;;;;;;;;;;;;16.07;37.42;100432.84;5069366;28;19917;-56
2023/03/27 08:46:39;;;;;;;;;;;;;;;16.51;37.90;100431.53;5069259;28;19932;-57
2023/03/27 08:49:06;;;;;;;;;;;;;;;16.30;36.95;100440.63;5059392;28;19925;-56
2023/03/27 08:51:40;;;;;;;;;;;;;;;16.48;37.00;100439.75;5049438;28;19967;-57
2023/03/27 08:54:16;;;;;;;;;;;;;;;16.53;36.22;100443.09;5051752;28;19921;-57
2023/03/27 08:56:41;;;;;;;;;;;;;;;15.57;36.14;100448.63;5048396;28;20001;-57
2023/03/27 08:59:14;;;;;;;;;;;;;;;15.80;39.48;100450.22;5048128;28;20423;-57
2023/03/27 09:01:40;;;;;;;;;;;;;;;16.42;39.64;100455.28;5063583;28;20514;-57
2023/03/27 09:04:13;;;;;;;;;;;;;;;16.62;36.50;100463.25;5068604;28;19946;-57
2023/03/27 09:06:57;;;;;;;;;;;;;;;17.18;35.70;100463.91;5069228;28;19938;-56
2023/03/27 09:09:37;;;;;;;;;;;;;;;17.55;35.35;100466.41;5072210;28;19949;-57
2023/03/27 09:12:08;;;;;;;;;;;;;;;17.66;34.36;100472.06;5069116;28;19946;-57
2023/03/27 09:14:46;;;;;;;;;;;;;;;17.73;33.39;100468.09;5072970;28;20029;-57
2023/03/27 09:17:18;;;;;;;;;;;;;;;17.70;34.37;100472.75;5069036;28;19932;-57
2023/03/27 09:20:16;;;;;;;;;;;;;;;17.97;33.30;100480.19;5052711;28;20376;-59
2023/03/27 09:22:51;;;;;;;;;;;;;;;17.98;31.38;100473.88;5039681;28;20358;-60
2023/03/27 09:25:22;;;;;;;;;;;;;;;18.55;33.17;100469.72;5066825;28;20060;-60
2023/03/27 09:27:48;;;;;;;;;;;;;;;19.20;33.42;100468.50;5052492;28;20018;-60
2023/03/27 09:30:20;;;;;;;;;;;;;;;19.62;33.02;100474.00;5052455;28;19940;-60
2023/03/27 09:32:47;;;;;;;;;;;;;;;19.84;33.76;100471.69;5051740;28;19950;-60
2023/03/27 09:35:14;;;;;;;;;;;;;;;19.47;33.84;100480.38;5038128;28;19931;-60
2023/03/27 09:37:40;;;;;;;;;;;;;;;19.16;33.07;100486.69;5071339;28;20363;-60
2023/03/27 09:40:12;;;;;;;;;;;;;;;19.21;32.11;100486.41;5071238;28;19948;-60
2023/03/27 09:42:39;;;;;;;;;;;;;;;19.21;31.63;100486.41;5068482;28;19920;-60
2023/03/27 09:45:06;;;;;;;;;;;;;;;19.35;29.50;100492.78;5051537;28;20572;-60
2023/03/27 09:47:32;;;;;;;;;;;;;;;18.73;30.53;100490.19;5057412;28;20058;-61
2023/03/27 09:50:04;;;;;;;;;;;;;;;17.67;31.33;100498.03;5070842;28;20054;-60
2023/03/27 09:52:36;;;;;;;;;;;;;;;16.85;35.63;100500.56;5052559;28;20340;-61
2023/03/27 09:55:03;;;;;;;;;;;;;;;16.85;33.10;100503.25;5064168;28;19999;-62
2023/03/27 09:57:34;;;;;;;;;;;;;;;16.33;33.82;100507.59;5071530;28;19991;-61
2023/03/27 10:00:38;;;;;;;;;;;;;;;15.95;36.73;100499.63;5060182;28;20273;-60
2023/03/27 10:03:06;;;;;;;;;;;;;;;16.64;33.79;100512.38;4997247;28;19921;-61
2023/03/27 10:05:31;;;;;;;;;;;;;;;17.20;32.65;100507.69;5008630;28;19995;-61
2023/03/27 10:07:58;;;;;;;;;;;;;;;17.43;30.80;100504.66;5034699;28;19920;-61
2023/03/27 10:10:25;;;;;;;;;;;;;;;17.87;31.40;100505.03;5051678;28;20556;-61
2023/03/27 10:12:56;;;;;;;;;;;;;;;18.41;31.46;100509.19;5057008;28;19919;-61
2023/03/27 10:15:37;;;;;;;;;;;;;;;17.44;31.80;100509.13;5066811;28;20376;-61
2023/03/27 10:18:06;;;;;;;;;;;;;;;17.04;33.01;100509.44;5068846;28;20116;-60
2023/03/27 10:20:32;;;;;;;;;;;;;;;16.95;32.16;100504.53;5065800;28;20024;-61
2023/03/27 10:23:08;;;;;;;;;;;;;;;17.86;33.46;100509.53;5070140;28;19930;-60
2023/03/27 10:25:38;;;;;;;;;;;;;;;18.95;32.77;100511.38;5070357;28;19916;-60
2023/03/27 10:28:14;;;;;;;;;;;;;;;19.14;27.19;100507.50;5051152;28;19966;-60
2023/03/27 10:30:39;;;;;;;;;;;;;;;19.74;27.62;100508.31;5054243;28;19921;-60
2023/03/27 10:33:06;;;;;;;;;;;;;;;19.31;29.58;100511.91;5051414;28;19942;-59
2023/03/27 10:35:35;;;;;;;;;;;;;;;18.49;31.54;100523.09;5054502;28;20488;-60
2023/03/27 10:38:02;;;;;;;;;;;;;;;17.74;32.00;100517.41;5051461;28;19938;-60
2023/03/27 10:40:29;;;;;;;;;;;;;;;17.45;32.46;100516.25;5051498;28;20007;-60
2023/03/27 10:42:55;;;;;;;;;;;;;;;17.18;31.69;100533.81;5063317;28;19916;-60
2023/03/27 10:45:22;;;;;;;;;;;;;;;16.55;33.53;100526.25;5058221;28;19917;-59
2023/03/27 10:47:49;;;;;;;;;;;;;;;15.92;34.27;100526.59;5053592;28;20331;-60
2023/03/27 10:50:18;;;;;;;;;;;;;;;15.26;33.17;100530.44;5051459;28;19916;-60
2023/03/27 10:53:12;;;;;;;;;;;;;;;15.18;35.62;100525.44;5051356;28;19927;-59
2023/03/27 10:55:53;;;;;;;;;;;;;;;15.07;36.77;100530.41;5048542;28;19928;-60
2023/03/27 10:58:26;;;;;;;;;;;;;;;14.95;37.51;100528.22;5057592;28;19933;-59
2023/03/27 11:01:00;;;;;;;;;;;;;;;14.90;36.96;100535.56;5051232;28;20355;-60
2023/03/27 11:03:32;;;;;;;;;;;;;;;14.92;36.04;100528.34;5051004;28;20287;-59
2023/03/27 11:05:59;;;;;;;;;;;;;;;14.56;34.11;100529.88;5062064;28;19957;-62
2023/03/27 11:08:34;;;;;;;;;;;;;;;15.02;34.88;100529.72;5051129;28;19938;-59
2023/03/27 11:11:12;;;;;;;;;;;;;;;15.68;34.17;100518.72;5051172;28;19948;-59
2023/03/27 11:13:39;;;;;;;;;;;;;;;16.80;34.60;100522.28;5050915;28;20283;-59
2023/03/27 11:16:08;;;;;;;;;;;;;;;17.54;32.96;100526.53;5052912;28;20377;-59
2023/03/27 11:18:37;;;;;;;;;;;;;;;17.22;30.43;100531.81;5049722;28;19924;-60
2023/03/27 11:21:11;;;;;;;;;;;;;;;16.49;30.98;100537.31;5061918;28;19946;-60
2023/03/27 11:23:45;;;;;;;;;;;;;;;17.09;33.33;100531.56;5049759;28;20673;-60
2023/03/27 11:26:11;;;;;;;;;;;;;;;16.97;31.67;100525.00;5049786;28;19978;-60
2023/03/27 11:28:47;;;;;;;;;;;;;;;16.58;33.60;100536.84;5049595;28;20004;-60
2023/03/27 11:31:19;;;;;;;;;;;;;;;16.53;34.46;100536.19;5061938;28;19920;-60
2023/03/27 11:33:51;;;;;;;;;;;;;;;16.03;34.37;100537.72;5070308;28;19923;-61
2023/03/27 11:36:31;;;;;;;;;;;;;;;15.78;35.83;100541.50;5066882;28;20319;-61
2023/03/27 11:39:17;;;;;;;;;;;;;;;15.30;34.10;100546.34;5070282;28;19971;-60
2023/03/27 11:41:49;;;;;;;;;;;;;;;14.55;34.04;100560.25;5050517;28;19920;-61
2023/03/27 11:44:14;;;;;;;;;;;;;;;13.92;34.89;100560.03;5070138;28;19916;-60
2023/03/27 11:46:58;;;;;;;;;;;;;;;13.72;35.69;100566.09;5070325;28;19995;-60
2023/03/27 11:49:23;;;;;;;;;;;;;;;13.63;39.07;100570.91;5058802;28;19955;-60
2023/03/27 11:51:48;;;;;;;;;;;;;;;13.51;38.85;100572.22;5069995;28;20006;-60
2023/03/27 11:54:32;;;;;;;;;;;;;;;13.37;39.66;100573.66;5063113;28;19928;-60
2023/03/27 11:57:00;;;;;;;;;;;;;;;13.41;40.47;100581.50;5050042;28;20428;-60
2023/03/27 11:59:25;;;;;;;;;;;;;;;13.34;39.58;100584.44;5051272;28;20318;-60
2023/03/27 12:01:56;;;;;;;;;;;;;;;13.25;40.22;100577.63;5051156;28;19912;-60
2023/03/27 12:04:35;;;;;;;;;;;;;;;13.21;38.77;100584.00;5051469;28;19961;-60
2023/03/27 12:07:12;;;;;;;;;;;;;;;13.01;39.23;100587.31;5052815;28;19923;-60
2023/03/27 12:09:43;;;;;;;;;;;;;;;12.94;41.93;100592.91;5048919;28;19988;-60
2023/03/27 12:12:35;;;;;;;;;;;;;;;12.65;43.83;100601.00;5054861;28;20400;-60
2023/03/27 12:15:15;;;;;;;;;;;;;;;11.81;44.10;100596.44;5029780;28;19912;-60
2023/03/27 12:17:54;;;;;;;;;;;;;;;12.42;46.29;100588.34;5066569;28;20392;-60
2023/03/27 12:20:31;;;;;;;;;;;;;;;12.98;41.82;100581.22;5049738;28;20011;-59
2023/03/27 12:23:13;;;;;;;;;;;;;;;13.61;41.04;100581.66;5049583;28;19970;-60
2023/03/27 12:25:50;;;;;;;;;;;;;;;14.51;39.12;100580.06;5052111;28;19920;-60
2023/03/27 12:28:25;;;;;;;;;;;;;;;14.69;40.42;100563.25;5049968;28;19917;-60
2023/03/27 12:31:20;;;;;;;;;;;;;;;14.52;40.15;100565.72;5052517;28;19934;-60
2023/03/27 12:33:59;;;;;;;;;;;;;;;13.73;37.87;100583.03;5049707;28;20349;-60
2023/03/27 12:36:26;;;;;;;;;;;;;;;13.13;39.41;100573.56;5063934;28;19935;-60
2023/03/27 12:38:54;;;;;;;;;;;;;;;13.44;41.87;100564.50;5066325;28;19920;-60
2023/03/27 12:41:24;;;;;;;;;;;;;;;12.79;40.47;100564.91;5069729;28;20007;-60
2023/03/27 12:43:53;;;;;;;;;;;;;;;12.61;42.15;100559.28;5073596;28;19917;-60
2023/03/27 12:46:21;;;;;;;;;;;;;;;12.30;41.56;100554.06;5062863;28;20437;-60
2023/03/27 12:48:47;;;;;;;;;;;;;;;12.43;40.12;100555.44;5073405;28;20363;-60
2023/03/27 12:51:14;;;;;;;;;;;;;;;13.32;40.32;100554.22;5066770;28;19964;-60
2023/03/27 12:53:39;;;;;;;;;;;;;;;13.05;39.87;100551.59;5053789;28;19920;-60